sensor_id;sensor_type;location;lat;lon;timestamp;P1;durP1;ratioP1;P2;durP2;ratioP2
30185;SDS011;31152;49.190;8.122;2024-01-30T00:01:25;23.08;;;11.75;;
30185;SDS011;31152;49.190;8.122;2024-01-30T00:03:52;27.70;;;12.57;;
30185;SDS011;31152;49.190;8.122;2024-01-30T00:06:19;20.48;;;11.90;;
30185;SDS011;31152;49.190;8.122;2024-01-30T00:08:50;20.42;;;11.43;;
30185;SDS011;31152;49.190;8.122;2024-01-30T00:11:16;21.98;;;11.30;;
30185;SDS011;31152;49.190;8.122;2024-01-30T00:13:43;20.15;;;10.88;;
30185;SDS011;31152;49.190;8.122;2024-01-30T00:16:19;20.08;;;10.70;;
30185;SDS011;31152;49.190;8.122;2024-01-30T00:18:54;22.55;;;11.60;;
30185;SDS011;31152;49.190;8.122;2024-01-30T00:21:21;26.83;;;11.88;;
30185;SDS011;31152;49.190;8.122;2024-01-30T00:23:48;24.42;;;12.70;;
30185;SDS011;31152;49.190;8.122;2024-01-30T00:26:15;23.05;;;12.05;;
30185;SDS011;31152;49.190;8.122;2024-01-30T00:28:42;24.40;;;12.43;;
30185;SDS011;31152;49.190;8.122;2024-01-30T00:31:09;21.10;;;11.68;;
30185;SDS011;31152;49.190;8.122;2024-01-30T00:33:39;25.52;;;11.73;;
30185;SDS011;31152;49.190;8.122;2024-01-30T00:36:09;22.10;;;10.85;;
30185;SDS011;31152;49.190;8.122;2024-01-30T00:38:36;22.55;;;11.63;;
30185;SDS011;31152;49.190;8.122;2024-01-30T00:41:03;25.00;;;11.90;;
30185;SDS011;31152;49.190;8.122;2024-01-30T00:43:31;23.23;;;10.98;;
30185;SDS011;31152;49.190;8.122;2024-01-30T00:46:00;20.00;;;10.57;;
30185;SDS011;31152;49.190;8.122;2024-01-30T00:48:27;20.80;;;9.82;;
30185;SDS011;31152;49.190;8.122;2024-01-30T00:50:54;21.05;;;10.80;;
30185;SDS011;31152;49.190;8.122;2024-01-30T00:53:23;19.65;;;10.27;;
30185;SDS011;31152;49.190;8.122;2024-01-30T00:55:49;24.23;;;10.55;;
30185;SDS011;31152;49.190;8.122;2024-01-30T00:58:18;20.42;;;9.82;;
30185;SDS011;31152;49.190;8.122;2024-01-30T01:00:47;17.92;;;9.35;;
30185;SDS011;31152;49.190;8.122;2024-01-30T01:03:14;24.38;;;10.07;;
30185;SDS011;31152;49.190;8.122;2024-01-30T01:05:41;20.67;;;9.20;;
30185;SDS011;31152;49.190;8.122;2024-01-30T01:08:08;16.73;;;9.50;;
30185;SDS011;31152;49.190;8.122;2024-01-30T01:10:37;19.17;;;9.75;;
30185;SDS011;31152;49.190;8.122;2024-01-30T01:13:09;18.55;;;10.05;;
30185;SDS011;31152;49.190;8.122;2024-01-30T01:15:35;21.30;;;10.52;;
30185;SDS011;31152;49.190;8.122;2024-01-30T01:18:03;24.05;;;11.10;;
30185;SDS011;31152;49.190;8.122;2024-01-30T01:20:32;21.25;;;10.27;;
30185;SDS011;31152;49.190;8.122;2024-01-30T01:23:01;18.92;;;9.07;;
30185;SDS011;31152;49.190;8.122;2024-01-30T01:25:28;22.05;;;9.80;;
30185;SDS011;31152;49.190;8.122;2024-01-30T01:27:59;16.58;;;8.75;;
30185;SDS011;31152;49.190;8.122;2024-01-30T01:30:27;16.38;;;7.90;;
30185;SDS011;31152;49.190;8.122;2024-01-30T01:32:55;18.70;;;8.65;;
30185;SDS011;31152;49.190;8.122;2024-01-30T01:35:27;15.45;;;8.70;;
30185;SDS011;31152;49.190;8.122;2024-01-30T01:37:54;18.20;;;8.30;;
30185;SDS011;31152;49.190;8.122;2024-01-30T01:40:25;14.68;;;7.75;;
30185;SDS011;31152;49.190;8.122;2024-01-30T01:42:53;15.25;;;7.70;;
30185;SDS011;31152;49.190;8.122;2024-01-30T01:45:21;15.32;;;7.88;;
30185;SDS011;31152;49.190;8.122;2024-01-30T01:47:51;15.32;;;7.97;;
30185;SDS011;31152;49.190;8.122;2024-01-30T01:50:21;18.67;;;8.13;;
30185;SDS011;31152;49.190;8.122;2024-01-30T01:52:49;15.65;;;8.35;;
30185;SDS011;31152;49.190;8.122;2024-01-30T01:55:16;14.90;;;8.73;;
30185;SDS011;31152;49.190;8.122;2024-01-30T01:57:44;14.68;;;7.97;;
30185;SDS011;31152;49.190;8.122;2024-01-30T02:00:11;14.63;;;7.85;;
30185;SDS011;31152;49.190;8.122;2024-01-30T02:02:39;15.32;;;7.82;;
30185;SDS011;31152;49.190;8.122;2024-01-30T02:05:08;16.60;;;7.72;;
30185;SDS011;31152;49.190;8.122;2024-01-30T02:07:35;15.90;;;8.00;;
30185;SDS011;31152;49.190;8.122;2024-01-30T02:10:02;15.45;;;8.70;;
30185;SDS011;31152;49.190;8.122;2024-01-30T02:12:32;15.10;;;8.38;;
30185;SDS011;31152;49.190;8.122;2024-01-30T02:15:01;14.52;;;8.30;;
30185;SDS011;31152;49.190;8.122;2024-01-30T02:17:31;17.02;;;8.55;;
30185;SDS011;31152;49.190;8.122;2024-01-30T02:19:58;13.32;;;7.85;;
30185;SDS011;31152;49.190;8.122;2024-01-30T02:22:26;15.20;;;8.48;;
30185;SDS011;31152;49.190;8.122;2024-01-30T02:24:53;17.98;;;8.32;;
30185;SDS011;31152;49.190;8.122;2024-01-30T02:27:20;17.80;;;8.27;;
30185;SDS011;31152;49.190;8.122;2024-01-30T02:29:46;14.85;;;8.10;;
30185;SDS011;31152;49.190;8.122;2024-01-30T02:32:13;15.15;;;8.32;;
30185;SDS011;31152;49.190;8.122;2024-01-30T02:34:40;14.73;;;8.52;;
30185;SDS011;31152;49.190;8.122;2024-01-30T02:37:07;14.15;;;8.20;;
30185;SDS011;31152;49.190;8.122;2024-01-30T02:39:34;19.20;;;8.70;;
30185;SDS011;31152;49.190;8.122;2024-01-30T02:42:01;17.42;;;9.13;;
30185;SDS011;31152;49.190;8.122;2024-01-30T02:44:27;16.65;;;9.23;;
30185;SDS011;31152;49.190;8.122;2024-01-30T02:46:54;18.48;;;9.40;;
30185;SDS011;31152;49.190;8.122;2024-01-30T02:49:21;16.20;;;9.45;;
30185;SDS011;31152;49.190;8.122;2024-01-30T02:51:48;14.77;;;8.63;;
30185;SDS011;31152;49.190;8.122;2024-01-30T02:54:15;20.73;;;10.05;;
30185;SDS011;31152;49.190;8.122;2024-01-30T02:56:42;24.23;;;9.77;;
30185;SDS011;31152;49.190;8.122;2024-01-30T02:59:09;19.88;;;9.80;;
30185;SDS011;31152;49.190;8.122;2024-01-30T03:01:44;18.17;;;9.50;;
30185;SDS011;31152;49.190;8.122;2024-01-30T03:04:12;20.83;;;9.57;;
30185;SDS011;31152;49.190;8.122;2024-01-30T03:06:44;19.20;;;10.18;;
30185;SDS011;31152;49.190;8.122;2024-01-30T03:09:12;23.67;;;10.35;;
30185;SDS011;31152;49.190;8.122;2024-01-30T03:11:39;22.52;;;10.98;;
30185;SDS011;31152;49.190;8.122;2024-01-30T03:14:06;17.98;;;10.48;;
30185;SDS011;31152;49.190;8.122;2024-01-30T03:16:39;17.90;;;10.20;;
30185;SDS011;31152;49.190;8.122;2024-01-30T03:19:06;20.13;;;9.77;;
30185;SDS011;31152;49.190;8.122;2024-01-30T03:21:35;20.00;;;10.40;;
30185;SDS011;31152;49.190;8.122;2024-01-30T03:24:02;18.55;;;10.40;;
30185;SDS011;31152;49.190;8.122;2024-01-30T03:26:29;20.17;;;10.27;;
30185;SDS011;31152;49.190;8.122;2024-01-30T03:28:58;19.40;;;10.20;;
30185;SDS011;31152;49.190;8.122;2024-01-30T03:31:25;18.58;;;10.35;;
30185;SDS011;31152;49.190;8.122;2024-01-30T03:33:52;19.50;;;10.52;;
30185;SDS011;31152;49.190;8.122;2024-01-30T03:36:19;18.35;;;9.85;;
30185;SDS011;31152;49.190;8.122;2024-01-30T03:38:46;27.58;;;11.20;;
30185;SDS011;31152;49.190;8.122;2024-01-30T03:41:13;21.52;;;11.35;;
30185;SDS011;31152;49.190;8.122;2024-01-30T03:43:42;20.63;;;10.85;;
30185;SDS011;31152;49.190;8.122;2024-01-30T03:46:09;19.75;;;11.32;;
30185;SDS011;31152;49.190;8.122;2024-01-30T03:48:37;19.05;;;9.95;;
30185;SDS011;31152;49.190;8.122;2024-01-30T03:51:06;21.25;;;10.40;;
30185;SDS011;31152;49.190;8.122;2024-01-30T03:53:33;18.75;;;10.88;;
30185;SDS011;31152;49.190;8.122;2024-01-30T03:56:00;23.60;;;10.07;;
30185;SDS011;31152;49.190;8.122;2024-01-30T03:58:27;18.02;;;9.60;;
30185;SDS011;31152;49.190;8.122;2024-01-30T04:00:54;21.13;;;10.32;;
30185;SDS011;31152;49.190;8.122;2024-01-30T04:03:20;19.60;;;9.95;;
30185;SDS011;31152;49.190;8.122;2024-01-30T04:05:47;21.35;;;10.32;;
30185;SDS011;31152;49.190;8.122;2024-01-30T04:08:16;18.05;;;9.32;;
30185;SDS011;31152;49.190;8.122;2024-01-30T04:10:46;17.92;;;9.73;;
30185;SDS011;31152;49.190;8.122;2024-01-30T04:13:15;17.13;;;9.63;;
30185;SDS011;31152;49.190;8.122;2024-01-30T04:15:42;18.63;;;9.38;;
30185;SDS011;31152;49.190;8.122;2024-01-30T04:18:11;24.65;;;9.63;;
30185;SDS011;31152;49.190;8.122;2024-01-30T04:20:38;19.23;;;9.50;;
30185;SDS011;31152;49.190;8.122;2024-01-30T04:23:05;19.38;;;10.18;;
30185;SDS011;31152;49.190;8.122;2024-01-30T04:25:31;20.85;;;9.68;;
30185;SDS011;31152;49.190;8.122;2024-01-30T04:27:58;18.15;;;9.43;;
30185;SDS011;31152;49.190;8.122;2024-01-30T04:30:25;18.88;;;9.32;;
30185;SDS011;31152;49.190;8.122;2024-01-30T04:32:52;16.83;;;9.23;;
30185;SDS011;31152;49.190;8.122;2024-01-30T04:35:18;22.10;;;9.60;;
30185;SDS011;31152;49.190;8.122;2024-01-30T04:37:51;17.42;;;9.90;;
30185;SDS011;31152;49.190;8.122;2024-01-30T04:40:19;18.70;;;8.77;;
30185;SDS011;31152;49.190;8.122;2024-01-30T04:42:49;16.80;;;8.75;;
30185;SDS011;31152;49.190;8.122;2024-01-30T04:45:18;15.98;;;8.88;;
30185;SDS011;31152;49.190;8.122;2024-01-30T04:47:45;16.33;;;8.77;;
30185;SDS011;31152;49.190;8.122;2024-01-30T04:50:13;19.85;;;9.40;;
30185;SDS011;31152;49.190;8.122;2024-01-30T04:52:42;17.13;;;9.00;;
30185;SDS011;31152;49.190;8.122;2024-01-30T04:55:09;21.75;;;9.70;;
30185;SDS011;31152;49.190;8.122;2024-01-30T04:57:35;19.75;;;8.90;;
30185;SDS011;31152;49.190;8.122;2024-01-30T05:00:04;15.32;;;8.07;;
30185;SDS011;31152;49.190;8.122;2024-01-30T05:02:32;16.50;;;8.80;;
30185;SDS011;31152;49.190;8.122;2024-01-30T05:05:01;22.67;;;9.15;;
30185;SDS011;31152;49.190;8.122;2024-01-30T05:07:34;15.95;;;8.27;;
30185;SDS011;31152;49.190;8.122;2024-01-30T05:10:03;16.58;;;8.60;;
30185;SDS011;31152;49.190;8.122;2024-01-30T05:12:35;17.70;;;8.32;;
30185;SDS011;31152;49.190;8.122;2024-01-30T05:15:01;14.68;;;7.93;;
30185;SDS011;31152;49.190;8.122;2024-01-30T05:17:36;16.75;;;9.15;;
30185;SDS011;31152;49.190;8.122;2024-01-30T05:20:03;18.42;;;8.70;;
30185;SDS011;31152;49.190;8.122;2024-01-30T05:22:31;15.98;;;8.75;;
30185;SDS011;31152;49.190;8.122;2024-01-30T05:24:57;17.58;;;8.95;;
30185;SDS011;31152;49.190;8.122;2024-01-30T05:27:27;19.63;;;9.10;;
30185;SDS011;31152;49.190;8.122;2024-01-30T05:29:53;18.48;;;9.27;;
30185;SDS011;31152;49.190;8.122;2024-01-30T05:32:23;21.95;;;9.10;;
30185;SDS011;31152;49.190;8.122;2024-01-30T05:34:49;18.00;;;8.85;;
30185;SDS011;31152;49.190;8.122;2024-01-30T05:37:16;18.27;;;9.15;;
30185;SDS011;31152;49.190;8.122;2024-01-30T05:39:44;19.38;;;9.32;;
30185;SDS011;31152;49.190;8.122;2024-01-30T05:42:11;16.30;;;8.73;;
30185;SDS011;31152;49.190;8.122;2024-01-30T05:44:37;16.55;;;8.98;;
30185;SDS011;31152;49.190;8.122;2024-01-30T05:47:06;17.13;;;9.02;;
30185;SDS011;31152;49.190;8.122;2024-01-30T05:49:35;15.15;;;8.45;;
30185;SDS011;31152;49.190;8.122;2024-01-30T05:52:04;17.77;;;9.25;;
30185;SDS011;31152;49.190;8.122;2024-01-30T05:54:31;16.20;;;8.85;;
30185;SDS011;31152;49.190;8.122;2024-01-30T05:56:58;19.42;;;7.90;;
30185;SDS011;31152;49.190;8.122;2024-01-30T05:59:25;18.75;;;8.30;;
30185;SDS011;31152;49.190;8.122;2024-01-30T06:01:54;19.23;;;9.48;;
30185;SDS011;31152;49.190;8.122;2024-01-30T06:04:21;20.25;;;9.82;;
30185;SDS011;31152;49.190;8.122;2024-01-30T06:06:47;19.17;;;8.63;;
30185;SDS011;31152;49.190;8.122;2024-01-30T06:09:14;15.88;;;9.30;;
30185;SDS011;31152;49.190;8.122;2024-01-30T06:11:41;18.13;;;9.30;;
30185;SDS011;31152;49.190;8.122;2024-01-30T06:14:08;20.92;;;10.73;;
30185;SDS011;31152;49.190;8.122;2024-01-30T06:16:35;21.58;;;11.63;;
30185;SDS011;31152;49.190;8.122;2024-01-30T06:19:01;21.98;;;11.43;;
30185;SDS011;31152;49.190;8.122;2024-01-30T06:21:32;27.63;;;13.48;;
30185;SDS011;31152;49.190;8.122;2024-01-30T06:24:02;27.02;;;13.40;;
30185;SDS011;31152;49.190;8.122;2024-01-30T06:26:29;23.15;;;12.25;;
30185;SDS011;31152;49.190;8.122;2024-01-30T06:28:58;23.83;;;12.85;;
30185;SDS011;31152;49.190;8.122;2024-01-30T06:31:25;24.98;;;12.18;;
30185;SDS011;31152;49.190;8.122;2024-01-30T06:33:54;23.88;;;12.10;;
30185;SDS011;31152;49.190;8.122;2024-01-30T06:36:21;23.83;;;11.93;;
30185;SDS011;31152;49.190;8.122;2024-01-30T06:38:48;23.58;;;12.63;;
30185;SDS011;31152;49.190;8.122;2024-01-30T06:41:15;24.67;;;12.85;;
30185;SDS011;31152;49.190;8.122;2024-01-30T06:43:42;27.85;;;12.82;;
30185;SDS011;31152;49.190;8.122;2024-01-30T06:46:11;24.35;;;12.18;;
30185;SDS011;31152;49.190;8.122;2024-01-30T06:48:39;23.25;;;11.52;;
30185;SDS011;31152;49.190;8.122;2024-01-30T06:51:09;29.83;;;13.13;;
30185;SDS011;31152;49.190;8.122;2024-01-30T06:53:35;22.10;;;11.75;;
30185;SDS011;31152;49.190;8.122;2024-01-30T06:56:02;26.60;;;12.65;;
30185;SDS011;31152;49.190;8.122;2024-01-30T06:58:29;25.88;;;13.52;;
30185;SDS011;31152;49.190;8.122;2024-01-30T07:00:58;27.92;;;13.35;;
30185;SDS011;31152;49.190;8.122;2024-01-30T07:03:28;26.50;;;13.75;;
30185;SDS011;31152;49.190;8.122;2024-01-30T07:05:55;25.52;;;14.05;;
30185;SDS011;31152;49.190;8.122;2024-01-30T07:08:21;25.35;;;13.68;;
30185;SDS011;31152;49.190;8.122;2024-01-30T07:10:48;27.85;;;13.75;;
30185;SDS011;31152;49.190;8.122;2024-01-30T07:13:16;27.77;;;14.25;;
30185;SDS011;31152;49.190;8.122;2024-01-30T07:15:44;28.42;;;13.95;;
30185;SDS011;31152;49.190;8.122;2024-01-30T07:18:13;27.75;;;14.02;;
30185;SDS011;31152;49.190;8.122;2024-01-30T07:20:40;24.50;;;13.00;;
30185;SDS011;31152;49.190;8.122;2024-01-30T07:23:12;28.58;;;13.63;;
30185;SDS011;31152;49.190;8.122;2024-01-30T07:25:42;30.63;;;14.95;;
30185;SDS011;31152;49.190;8.122;2024-01-30T07:28:09;30.70;;;14.30;;
30185;SDS011;31152;49.190;8.122;2024-01-30T07:30:39;28.95;;;14.75;;
30185;SDS011;31152;49.190;8.122;2024-01-30T07:33:06;32.05;;;13.88;;
30185;SDS011;31152;49.190;8.122;2024-01-30T07:35:36;34.25;;;14.60;;
30185;SDS011;31152;49.190;8.122;2024-01-30T07:38:03;32.47;;;15.95;;
30185;SDS011;31152;49.190;8.122;2024-01-30T07:40:32;33.15;;;15.93;;
30185;SDS011;31152;49.190;8.122;2024-01-30T07:42:59;36.55;;;15.80;;
30185;SDS011;31152;49.190;8.122;2024-01-30T07:45:27;32.40;;;16.23;;
30185;SDS011;31152;49.190;8.122;2024-01-30T07:47:58;35.65;;;15.77;;
30185;SDS011;31152;49.190;8.122;2024-01-30T07:50:33;32.22;;;16.30;;
30185;SDS011;31152;49.190;8.122;2024-01-30T07:53:00;38.67;;;16.42;;
30185;SDS011;31152;49.190;8.122;2024-01-30T07:55:28;30.95;;;16.00;;
30185;SDS011;31152;49.190;8.122;2024-01-30T07:57:59;29.73;;;15.27;;
30185;SDS011;31152;49.190;8.122;2024-01-30T08:00:29;31.30;;;15.88;;
30185;SDS011;31152;49.190;8.122;2024-01-30T08:02:59;38.15;;;16.23;;
30185;SDS011;31152;49.190;8.122;2024-01-30T08:05:28;28.73;;;14.40;;
30185;SDS011;31152;49.190;8.122;2024-01-30T08:07:57;29.13;;;14.15;;
30185;SDS011;31152;49.190;8.122;2024-01-30T08:10:24;29.13;;;14.32;;
30185;SDS011;31152;49.190;8.122;2024-01-30T08:12:51;35.00;;;15.50;;
30185;SDS011;31152;49.190;8.122;2024-01-30T08:15:18;26.95;;;14.02;;
30185;SDS011;31152;49.190;8.122;2024-01-30T08:17:45;28.30;;;14.57;;
30185;SDS011;31152;49.190;8.122;2024-01-30T08:20:14;26.90;;;14.32;;
30185;SDS011;31152;49.190;8.122;2024-01-30T08:22:45;27.33;;;14.07;;
30185;SDS011;31152;49.190;8.122;2024-01-30T08:25:12;33.15;;;15.57;;
30185;SDS011;31152;49.190;8.122;2024-01-30T08:27:39;30.65;;;15.88;;
30185;SDS011;31152;49.190;8.122;2024-01-30T08:30:06;29.08;;;13.13;;
30185;SDS011;31152;49.190;8.122;2024-01-30T08:32:34;23.48;;;11.68;;
30185;SDS011;31152;49.190;8.122;2024-01-30T08:35:01;27.10;;;13.15;;
30185;SDS011;31152;49.190;8.122;2024-01-30T08:37:30;29.92;;;13.30;;
30185;SDS011;31152;49.190;8.122;2024-01-30T08:39:57;21.85;;;11.90;;
30185;SDS011;31152;49.190;8.122;2024-01-30T08:42:24;23.65;;;11.10;;
30185;SDS011;31152;49.190;8.122;2024-01-30T08:44:51;22.95;;;10.95;;
30185;SDS011;31152;49.190;8.122;2024-01-30T08:47:19;22.95;;;10.75;;
30185;SDS011;31152;49.190;8.122;2024-01-30T08:49:46;26.33;;;11.38;;
30185;SDS011;31152;49.190;8.122;2024-01-30T08:52:13;25.23;;;11.98;;
30185;SDS011;31152;49.190;8.122;2024-01-30T08:54:40;29.83;;;13.77;;
30185;SDS011;31152;49.190;8.122;2024-01-30T08:57:07;49.38;;;20.58;;
30185;SDS011;31152;49.190;8.122;2024-01-30T08:59:36;41.65;;;17.42;;
30185;SDS011;31152;49.190;8.122;2024-01-30T09:02:03;26.35;;;11.85;;
30185;SDS011;31152;49.190;8.122;2024-01-30T09:04:38;26.17;;;12.25;;
30185;SDS011;31152;49.190;8.122;2024-01-30T09:07:08;22.63;;;11.90;;
30185;SDS011;31152;49.190;8.122;2024-01-30T09:09:40;22.48;;;11.35;;
30185;SDS011;31152;49.190;8.122;2024-01-30T09:12:07;25.65;;;12.85;;
30185;SDS011;31152;49.190;8.122;2024-01-30T09:14:38;23.13;;;13.20;;
30185;SDS011;31152;49.190;8.122;2024-01-30T09:17:07;29.40;;;12.43;;
30185;SDS011;31152;49.190;8.122;2024-01-30T09:19:37;24.58;;;12.65;;
30185;SDS011;31152;49.190;8.122;2024-01-30T09:22:04;24.85;;;13.05;;
30185;SDS011;31152;49.190;8.122;2024-01-30T09:24:31;24.35;;;12.50;;
30185;SDS011;31152;49.190;8.122;2024-01-30T09:26:58;20.35;;;12.05;;
30185;SDS011;31152;49.190;8.122;2024-01-30T09:29:28;26.25;;;12.35;;
30185;SDS011;31152;49.190;8.122;2024-01-30T09:32:01;21.08;;;11.10;;
30185;SDS011;31152;49.190;8.122;2024-01-30T09:34:28;18.05;;;10.77;;
30185;SDS011;31152;49.190;8.122;2024-01-30T09:36:55;22.73;;;11.73;;
30185;SDS011;31152;49.190;8.122;2024-01-30T09:39:25;21.90;;;11.82;;
30185;SDS011;31152;49.190;8.122;2024-01-30T09:42:11;18.38;;;11.25;;
30185;SDS011;31152;49.190;8.122;2024-01-30T09:44:58;18.10;;;11.13;;
30185;SDS011;31152;49.190;8.122;2024-01-30T09:47:27;22.98;;;11.25;;
30185;SDS011;31152;49.190;8.122;2024-01-30T09:49:57;17.05;;;10.27;;
30185;SDS011;31152;49.190;8.122;2024-01-30T09:52:26;18.70;;;10.95;;
30185;SDS011;31152;49.190;8.122;2024-01-30T09:54:55;17.73;;;10.80;;
30185;SDS011;31152;49.190;8.122;2024-01-30T09:57:25;21.02;;;11.60;;
30185;SDS011;31152;49.190;8.122;2024-01-30T09:59:52;18.52;;;11.07;;
30185;SDS011;31152;49.190;8.122;2024-01-30T10:02:22;20.70;;;10.40;;
30185;SDS011;31152;49.190;8.122;2024-01-30T10:04:50;17.52;;;8.38;;
30185;SDS011;31152;49.190;8.122;2024-01-30T10:07:20;15.73;;;9.20;;
30185;SDS011;31152;49.190;8.122;2024-01-30T10:09:48;17.10;;;8.70;;
30185;SDS011;31152;49.190;8.122;2024-01-30T10:12:15;16.35;;;8.40;;
30185;SDS011;31152;49.190;8.122;2024-01-30T10:14:42;14.80;;;8.38;;
30185;SDS011;31152;49.190;8.122;2024-01-30T10:17:10;20.27;;;8.27;;
30185;SDS011;31152;49.190;8.122;2024-01-30T10:19:53;15.77;;;7.80;;
30185;SDS011;31152;49.190;8.122;2024-01-30T10:22:20;17.10;;;8.20;;
30185;SDS011;31152;49.190;8.122;2024-01-30T10:24:48;15.93;;;8.52;;
30185;SDS011;31152;49.190;8.122;2024-01-30T10:27:15;14.00;;;7.68;;
30185;SDS011;31152;49.190;8.122;2024-01-30T10:29:42;11.90;;;7.78;;
30185;SDS011;31152;49.190;8.122;2024-01-30T10:32:09;15.23;;;8.15;;
30185;SDS011;31152;49.190;8.122;2024-01-30T10:34:36;12.05;;;7.75;;
30185;SDS011;31152;49.190;8.122;2024-01-30T10:37:10;14.95;;;8.35;;
30185;SDS011;31152;49.190;8.122;2024-01-30T10:39:47;14.77;;;8.18;;
30185;SDS011;31152;49.190;8.122;2024-01-30T10:42:17;15.40;;;8.52;;
30185;SDS011;31152;49.190;8.122;2024-01-30T10:44:59;17.83;;;8.50;;
30185;SDS011;31152;49.190;8.122;2024-01-30T10:47:27;21.88;;;9.90;;
30185;SDS011;31152;49.190;8.122;2024-01-30T10:49:57;17.17;;;10.63;;
30185;SDS011;31152;49.190;8.122;2024-01-30T10:52:24;20.23;;;10.38;;
30185;SDS011;31152;49.190;8.122;2024-01-30T10:54:53;18.88;;;9.82;;
30185;SDS011;31152;49.190;8.122;2024-01-30T10:57:24;21.52;;;9.18;;
30185;SDS011;31152;49.190;8.122;2024-01-30T10:59:59;14.05;;;8.48;;
30185;SDS011;31152;49.190;8.122;2024-01-30T11:02:28;19.05;;;8.93;;
30185;SDS011;31152;49.190;8.122;2024-01-30T11:04:58;13.93;;;7.40;;
30185;SDS011;31152;49.190;8.122;2024-01-30T11:07:27;13.48;;;7.13;;
30185;SDS011;31152;49.190;8.122;2024-01-30T11:12:27;13.23;;;5.82;;
30185;SDS011;31152;49.190;8.122;2024-01-30T11:15:01;12.50;;;6.13;;
30185;SDS011;31152;49.190;8.122;2024-01-30T11:17:43;11.40;;;6.30;;
30185;SDS011;31152;49.190;8.122;2024-01-30T11:20:11;11.40;;;6.25;;
30185;SDS011;31152;49.190;8.122;2024-01-30T11:22:50;14.32;;;6.30;;
30185;SDS011;31152;49.190;8.122;2024-01-30T11:25:21;14.50;;;6.30;;
30185;SDS011;31152;49.190;8.122;2024-01-30T11:27:50;14.25;;;6.47;;
30185;SDS011;31152;49.190;8.122;2024-01-30T11:33:10;13.60;;;6.57;;
30185;SDS011;31152;49.190;8.122;2024-01-30T11:35:39;13.73;;;7.13;;
30185;SDS011;31152;49.190;8.122;2024-01-30T11:38:07;14.57;;;6.95;;
30185;SDS011;31152;49.190;8.122;2024-01-30T11:40:37;16.20;;;7.40;;
30185;SDS011;31152;49.190;8.122;2024-01-30T11:43:06;11.43;;;6.72;;
30185;SDS011;31152;49.190;8.122;2024-01-30T11:45:34;10.75;;;6.25;;
30185;SDS011;31152;49.190;8.122;2024-01-30T11:48:02;12.57;;;7.30;;
30185;SDS011;31152;49.190;8.122;2024-01-30T11:50:37;11.70;;;6.43;;
30185;SDS011;31152;49.190;8.122;2024-01-30T11:53:05;14.10;;;6.45;;
30185;SDS011;31152;49.190;8.122;2024-01-30T11:55:35;12.23;;;6.43;;
30185;SDS011;31152;49.190;8.122;2024-01-30T11:58:04;14.73;;;7.25;;
30185;SDS011;31152;49.190;8.122;2024-01-30T12:00:31;13.48;;;6.20;;
30185;SDS011;31152;49.190;8.122;2024-01-30T12:03:00;11.10;;;7.05;;
30185;SDS011;31152;49.190;8.122;2024-01-30T12:05:27;11.13;;;6.18;;
30185;SDS011;31152;49.190;8.122;2024-01-30T12:07:55;11.77;;;6.50;;
30185;SDS011;31152;49.190;8.122;2024-01-30T12:10:26;12.73;;;6.13;;
30185;SDS011;31152;49.190;8.122;2024-01-30T12:12:56;12.23;;;6.53;;
30185;SDS011;31152;49.190;8.122;2024-01-30T12:15:24;9.18;;;6.18;;
30185;SDS011;31152;49.190;8.122;2024-01-30T12:18:03;10.77;;;6.40;;
30185;SDS011;31152;49.190;8.122;2024-01-30T12:20:34;10.02;;;6.43;;
30185;SDS011;31152;49.190;8.122;2024-01-30T12:23:03;13.00;;;6.40;;
30185;SDS011;31152;49.190;8.122;2024-01-30T12:25:30;11.05;;;6.35;;
30185;SDS011;31152;49.190;8.122;2024-01-30T12:27:57;9.57;;;6.30;;
30185;SDS011;31152;49.190;8.122;2024-01-30T12:30:24;11.90;;;6.05;;
30185;SDS011;31152;49.190;8.122;2024-01-30T12:32:52;8.63;;;6.13;;
30185;SDS011;31152;49.190;8.122;2024-01-30T12:35:19;10.02;;;5.90;;
30185;SDS011;31152;49.190;8.122;2024-01-30T12:37:48;12.13;;;6.60;;
30185;SDS011;31152;49.190;8.122;2024-01-30T12:40:18;11.95;;;6.30;;
30185;SDS011;31152;49.190;8.122;2024-01-30T12:42:46;11.60;;;6.55;;
30185;SDS011;31152;49.190;8.122;2024-01-30T12:45:16;13.75;;;6.88;;
30185;SDS011;31152;49.190;8.122;2024-01-30T12:47:49;9.85;;;6.10;;
30185;SDS011;31152;49.190;8.122;2024-01-30T12:50:16;12.73;;;6.40;;
30185;SDS011;31152;49.190;8.122;2024-01-30T12:52:45;11.77;;;6.45;;
30185;SDS011;31152;49.190;8.122;2024-01-30T12:55:15;12.60;;;6.22;;
30185;SDS011;31152;49.190;8.122;2024-01-30T12:57:43;10.57;;;6.30;;
30185;SDS011;31152;49.190;8.122;2024-01-30T13:00:10;12.50;;;6.22;;
30185;SDS011;31152;49.190;8.122;2024-01-30T13:02:37;12.18;;;6.30;;
30185;SDS011;31152;49.190;8.122;2024-01-30T13:05:05;13.20;;;6.85;;
30185;SDS011;31152;49.190;8.122;2024-01-30T13:07:32;11.73;;;7.90;;
30185;SDS011;31152;49.190;8.122;2024-01-30T13:10:02;13.48;;;7.10;;
30185;SDS011;31152;49.190;8.122;2024-01-30T13:12:31;18.08;;;7.63;;
30185;SDS011;31152;49.190;8.122;2024-01-30T13:15:01;13.98;;;7.55;;
30185;SDS011;31152;49.190;8.122;2024-01-30T13:17:30;13.63;;;7.53;;
30185;SDS011;31152;49.190;8.122;2024-01-30T13:19:57;14.82;;;7.50;;
30185;SDS011;31152;49.190;8.122;2024-01-30T13:22:35;16.50;;;7.68;;
30185;SDS011;31152;49.190;8.122;2024-01-30T13:25:07;11.95;;;7.43;;
30185;SDS011;31152;49.190;8.122;2024-01-30T13:27:35;13.27;;;7.70;;
30185;SDS011;31152;49.190;8.122;2024-01-30T13:30:04;14.65;;;7.78;;
30185;SDS011;31152;49.190;8.122;2024-01-30T13:32:31;16.23;;;8.05;;
30185;SDS011;31152;49.190;8.122;2024-01-30T13:34:58;13.10;;;7.57;;
30185;SDS011;31152;49.190;8.122;2024-01-30T13:37:25;11.43;;;7.00;;
30185;SDS011;31152;49.190;8.122;2024-01-30T13:39:52;16.85;;;8.57;;
30185;SDS011;31152;49.190;8.122;2024-01-30T13:42:19;13.70;;;7.82;;
30185;SDS011;31152;49.190;8.122;2024-01-30T13:44:46;13.82;;;7.85;;
30185;SDS011;31152;49.190;8.122;2024-01-30T13:47:13;18.15;;;9.60;;
30185;SDS011;31152;49.190;8.122;2024-01-30T13:49:39;14.98;;;7.57;;
30185;SDS011;31152;49.190;8.122;2024-01-30T13:52:07;13.73;;;8.00;;
30185;SDS011;31152;49.190;8.122;2024-01-30T13:54:34;12.40;;;7.63;;
30185;SDS011;31152;49.190;8.122;2024-01-30T13:57:01;13.80;;;7.72;;
30185;SDS011;31152;49.190;8.122;2024-01-30T13:59:31;20.42;;;7.50;;
30185;SDS011;31152;49.190;8.122;2024-01-30T14:02:03;14.82;;;8.10;;
30185;SDS011;31152;49.190;8.122;2024-01-30T14:04:30;16.83;;;8.15;;
30185;SDS011;31152;49.190;8.122;2024-01-30T14:07:00;14.30;;;8.13;;
30185;SDS011;31152;49.190;8.122;2024-01-30T14:09:36;16.63;;;8.40;;
30185;SDS011;31152;49.190;8.122;2024-01-30T14:12:10;17.48;;;8.70;;
30185;SDS011;31152;49.190;8.122;2024-01-30T14:14:39;14.02;;;8.45;;
30185;SDS011;31152;49.190;8.122;2024-01-30T14:17:07;15.23;;;8.90;;
30185;SDS011;31152;49.190;8.122;2024-01-30T14:19:36;21.52;;;8.40;;
30185;SDS011;31152;49.190;8.122;2024-01-30T14:22:03;14.60;;;8.88;;
30185;SDS011;31152;49.190;8.122;2024-01-30T14:24:30;14.55;;;8.80;;
30185;SDS011;31152;49.190;8.122;2024-01-30T14:27:00;16.13;;;8.75;;
30185;SDS011;31152;49.190;8.122;2024-01-30T14:29:27;19.15;;;9.50;;
30185;SDS011;31152;49.190;8.122;2024-01-30T14:31:53;14.23;;;8.88;;
30185;SDS011;31152;49.190;8.122;2024-01-30T14:34:21;15.82;;;9.25;;
30185;SDS011;31152;49.190;8.122;2024-01-30T14:36:48;16.42;;;9.55;;
30185;SDS011;31152;49.190;8.122;2024-01-30T14:39:15;14.90;;;8.68;;
30185;SDS011;31152;49.190;8.122;2024-01-30T14:41:41;14.65;;;8.85;;